Time;durP1;ratioP1;P1;durP2;ratioP2;P2;SDS_P1;SDS_P2;PMS_P1;PMS_P2;Temp;Humidity;BMP_temperature;BMP_pressure;BME280_temperature;BME280_humidity;BME280_pressure;Samples;Min_cycle;Max_cycle;Signal;HPM_P1;HPM_P2
2023/07/20 00:01:44;0.00;0.00;0.62;0.00;0.00;0.62;1.40;0.90;;;31.00;23.40;;;;;;2260864;61;21127;-64
2023/07/20 00:04:29;0.00;0.00;0.62;0.00;0.00;0.62;2.43;1.10;;;31.00;23.40;;;;;;2258161;61;20392;-64
2023/07/20 00:07:15;0.00;0.00;0.62;0.00;0.00;0.62;1.77;1.03;;;31.00;23.40;;;;;;2257987;61;20393;-64
2023/07/20 00:10:00;0.00;0.00;0.62;0.00;0.00;0.62;1.97;0.90;;;31.00;23.40;;;;;;2261089;61;20380;-64
2023/07/20 00:12:47;0.00;0.00;0.62;0.00;0.00;0.62;1.77;0.90;;;31.00;23.40;;;;;;2258112;61;20401;-64
2023/07/20 00:15:32;0.00;0.00;0.62;0.00;0.00;0.62;1.40;0.80;;;31.00;23.40;;;;;;2260421;61;20405;-64
2023/07/20 00:18:17;0.00;0.00;0.62;0.00;0.00;0.62;1.30;0.80;;;31.00;23.40;;;;;;2260627;61;20448;-65
2023/07/20 00:21:02;0.00;0.00;0.62;0.00;0.00;0.62;1.70;1.00;;;31.00;23.40;;;;;;2261193;61;20346;-65
2023/07/20 00:23:48;0.00;0.00;0.62;0.00;0.00;0.62;1.60;0.87;;;31.00;23.40;;;;;;2261213;61;20425;-65
2023/07/20 00:26:33;0.00;0.00;0.62;0.00;0.00;0.62;1.50;1.00;;;31.00;23.40;;;;;;2261230;61;20377;-65
2023/07/20 00:29:18;0.00;0.00;0.62;0.00;0.00;0.62;1.83;0.80;;;31.00;23.40;;;;;;2257482;61;20377;-65
2023/07/20 00:32:05;0.00;0.00;0.62;0.00;0.00;0.62;1.40;0.90;;;31.00;23.40;;;;;;2260965;61;20370;-65
2023/07/20 00:34:50;0.00;0.00;0.62;0.00;0.00;0.62;1.30;0.70;;;31.00;23.40;;;;;;2258430;61;20366;-65
2023/07/20 00:37:35;0.00;0.00;0.62;0.00;0.00;0.62;1.50;0.80;;;30.90;23.40;;;;;;2257821;61;20389;-65
2023/07/20 00:40:21;0.00;0.00;0.62;0.00;0.00;0.62;1.40;0.80;;;30.90;23.40;;;;;;2257703;61;20420;-65
2023/07/20 00:43:06;0.00;0.00;0.62;0.00;0.00;0.62;1.23;0.70;;;30.90;23.40;;;;;;2258191;61;20382;-65
2023/07/20 00:45:51;0.00;0.00;0.62;0.00;0.00;0.62;1.40;0.80;;;30.90;23.40;;;;;;2257481;61;20362;-64
2023/07/20 00:48:37;0.00;0.00;0.62;0.00;0.00;0.62;1.67;0.87;;;30.90;23.40;;;;;;2257765;61;20457;-64
2023/07/20 00:51:24;0.00;0.00;0.62;0.00;0.00;0.62;1.77;0.87;;;31.00;23.40;;;;;;2257544;61;20477;-64
2023/07/20 00:54:09;0.00;0.00;0.62;0.00;0.00;0.62;1.30;0.73;;;30.90;23.40;;;;;;2260576;61;20354;-64
2023/07/20 00:56:56;0.00;0.00;0.62;0.00;0.00;0.62;1.37;0.80;;;30.90;23.40;;;;;;2255792;61;20382;-64
2023/07/20 00:59:41;0.00;0.00;0.62;0.00;0.00;0.62;1.30;0.70;;;30.90;23.40;;;;;;2258056;61;20910;-64
2023/07/20 01:02:26;0.00;0.00;0.62;0.00;0.00;0.62;1.80;1.00;;;30.90;23.40;;;;;;2256536;61;20353;-65
2023/07/20 01:05:12;0.00;0.00;0.62;0.00;0.00;0.62;1.50;0.90;;;30.90;23.40;;;;;;2261198;61;20774;-65
2023/07/20 01:08:02;0.00;0.00;0.62;0.00;0.00;0.62;1.90;1.10;;;30.90;24.00;;;;;;2260772;61;20425;-65
2023/07/20 01:10:54;0.00;0.00;0.62;0.00;0.00;0.62;1.70;0.93;;;30.90;23.40;;;;;;2260881;61;20905;-64
2023/07/20 01:13:47;0.00;0.00;0.62;0.00;0.00;0.62;1.50;0.90;;;30.90;23.50;;;;;;2257507;61;20350;-65
2023/07/20 01:16:33;0.00;0.00;0.62;0.00;0.00;0.62;1.50;0.90;;;30.90;23.40;;;;;;2257678;61;20413;-64
2023/07/20 01:19:18;0.00;0.00;0.62;0.00;0.00;0.62;1.30;0.90;;;30.90;23.40;;;;;;2257638;61;20373;-64
2023/07/20 01:22:21;0.00;0.00;0.62;0.00;0.00;0.62;2.37;0.90;;;30.90;23.50;;;;;;2257939;61;20909;-65
2023/07/20 01:25:29;0.00;0.00;0.62;0.00;0.00;0.62;1.50;0.80;;;30.90;23.50;;;;;;2254798;61;20342;-65
2023/07/20 01:28:39;0.00;0.00;0.62;0.00;0.00;0.62;1.40;0.80;;;30.90;23.50;;;;;;2260773;61;20377;-63
2023/07/20 01:31:28;0.00;0.00;0.62;0.00;0.00;0.62;1.23;0.70;;;30.90;23.50;;;;;;2257678;61;20341;-63
2023/07/20 01:34:15;0.00;0.00;0.62;0.00;0.00;0.62;1.60;0.90;;;30.80;23.40;;;;;;2261204;61;20358;-63
2023/07/20 01:37:01;0.00;0.00;0.62;0.00;0.00;0.62;1.20;0.70;;;30.80;23.40;;;;;;2257762;61;20385;-64
2023/07/20 01:39:46;0.00;0.00;0.62;0.00;0.00;0.62;1.33;0.80;;;30.80;23.40;;;;;;2257710;61;20377;-64
2023/07/20 01:42:31;0.00;0.00;0.62;0.00;0.00;0.62;1.70;0.90;;;30.80;23.40;;;;;;2260971;61;20392;-64
2023/07/20 01:45:16;0.00;0.00;0.62;0.00;0.00;0.62;1.27;0.77;;;30.80;23.40;;;;;;2257780;61;20366;-64
2023/07/20 01:48:03;0.00;0.00;0.62;0.00;0.00;0.62;1.53;0.80;;;30.80;23.40;;;;;;2261010;61;20385;-64
2023/07/20 01:50:48;0.00;0.00;0.62;0.00;0.00;0.62;1.30;0.80;;;30.80;23.40;;;;;;2257810;61;20366;-64
2023/07/20 01:53:34;0.00;0.00;0.62;0.00;0.00;0.62;1.30;0.73;;;30.80;23.40;;;;;;2257834;61;20369;-64
2023/07/20 01:56:18;0.00;0.00;0.62;0.00;0.00;0.62;2.00;0.80;;;30.80;23.40;;;;;;2257984;61;20358;-64
2023/07/20 01:59:03;0.00;0.00;0.62;0.00;0.00;0.62;1.30;0.70;;;30.80;23.40;;;;;;2257478;61;20393;-64
2023/07/20 02:01:49;0.00;0.00;0.62;0.00;0.00;0.62;1.33;0.80;;;30.80;23.40;;;;;;2257998;61;20350;-64
2023/07/20 02:04:35;0.00;0.00;0.62;0.00;0.00;0.62;2.63;1.10;;;30.80;23.40;;;;;;2260870;61;20443;-64
2023/07/20 02:07:20;0.00;0.00;0.62;0.00;0.00;0.62;1.30;0.70;;;30.80;23.40;;;;;;2260779;61;20401;-64
2023/07/20 02:10:06;0.00;0.00;0.62;0.00;0.00;0.62;1.37;0.80;;;30.80;23.40;;;;;;2257474;61;20378;-64
2023/07/20 02:12:51;0.00;0.00;0.62;0.00;0.00;0.62;1.63;0.70;;;30.80;23.40;;;;;;2257721;61;20400;-64
2023/07/20 02:15:36;0.00;0.00;0.62;0.00;0.00;0.62;1.60;0.90;;;30.80;23.40;;;;;;2260984;61;20369;-64
2023/07/20 02:18:20;0.00;0.00;0.62;0.00;0.00;0.62;1.40;0.80;;;30.80;23.40;;;;;;2257930;61;20977;-64
2023/07/20 02:21:06;0.00;0.00;0.62;0.00;0.00;0.62;1.40;0.70;;;30.70;23.40;;;;;;2257535;61;20931;-64
2023/07/20 02:23:51;0.00;0.00;0.62;0.00;0.00;0.62;1.30;0.80;;;30.70;23.40;;;;;;2260877;61;20355;-64
2023/07/20 02:26:35;0.00;0.00;0.62;0.00;0.00;0.62;1.30;0.80;;;30.70;23.40;;;;;;2261062;61;20411;-65
2023/07/20 02:29:20;0.00;0.00;0.62;0.00;0.00;0.62;1.50;0.90;;;30.80;23.40;;;;;;2261238;61;20392;-64
2023/07/20 02:32:06;0.00;0.00;0.62;0.00;0.00;0.62;1.40;0.70;;;30.80;23.40;;;;;;2261401;61;20350;-64
2023/07/20 02:34:52;0.00;0.00;0.62;0.00;0.00;0.62;1.50;0.80;;;30.80;23.40;;;;;;2258511;61;20373;-64
2023/07/20 02:37:38;0.00;0.00;0.62;0.00;0.00;0.62;1.37;0.87;;;30.70;23.40;;;;;;2261698;61;20385;-64
2023/07/20 02:40:23;0.00;0.00;0.62;0.00;0.00;0.62;1.37;0.80;;;30.70;23.40;;;;;;2258273;61;20382;-64
2023/07/20 02:43:09;0.00;0.00;0.62;0.00;0.00;0.62;1.30;0.70;;;30.70;23.40;;;;;;2258496;61;20341;-64
2023/07/20 02:45:53;0.00;0.00;0.62;0.00;0.00;0.62;1.40;0.80;;;30.70;23.40;;;;;;2261807;61;20354;-64
2023/07/20 02:48:38;0.00;0.00;0.62;0.00;0.00;0.62;1.30;0.80;;;30.70;23.40;;;;;;2258560;61;20382;-64
2023/07/20 02:51:23;0.00;0.00;0.62;0.00;0.00;0.62;1.33;0.70;;;30.70;23.40;;;;;;2261236;61;20409;-64
2023/07/20 02:54:09;0.00;0.00;0.62;0.00;0.00;0.62;1.67;0.90;;;30.70;23.40;;;;;;2258206;61;20381;-64
2023/07/20 02:56:54;0.00;0.00;0.62;0.00;0.00;0.62;1.50;0.87;;;30.70;23.90;;;;;;2258355;61;20436;-64
2023/07/20 02:59:39;0.00;0.00;0.62;0.00;0.00;0.62;1.30;0.70;;;30.70;23.40;;;;;;2255292;61;20394;-64
2023/07/20 03:02:23;0.00;0.00;0.62;0.00;0.00;0.62;1.40;0.70;;;30.70;23.40;;;;;;2261363;61;20356;-64
2023/07/20 03:05:09;0.00;0.00;0.62;0.00;0.00;0.62;1.33;0.77;;;30.70;23.40;;;;;;2257842;61;20917;-64
2023/07/20 03:07:56;0.00;0.00;0.62;0.00;0.00;0.62;1.40;0.67;;;30.70;23.40;;;;;;2258164;61;20797;-64
2023/07/20 03:10:42;0.00;0.00;0.62;0.00;0.00;0.62;1.37;0.70;;;30.60;22.90;;;;;;2258324;61;20365;-64
2023/07/20 03:13:27;0.00;0.00;0.62;0.00;0.00;0.62;1.50;0.80;;;30.60;23.90;;;;;;2261538;61;20485;-64
2023/07/20 03:16:15;0.00;0.00;0.62;0.00;0.00;0.62;1.60;0.80;;;30.70;23.40;;;;;;2261463;61;20398;-64
2023/07/20 03:19:00;0.00;0.00;0.62;0.00;0.00;0.62;1.20;0.70;;;30.70;23.40;;;;;;2255221;61;20378;-64
2023/07/20 03:21:45;0.00;0.00;0.62;0.00;0.00;0.62;1.93;0.90;;;30.70;23.40;;;;;;2255585;61;20451;-64
2023/07/20 03:24:29;0.00;0.00;0.62;0.00;0.00;0.62;1.30;0.70;;;30.60;23.40;;;;;;2261613;61;20365;-65
2023/07/20 03:27:15;0.00;0.00;0.62;0.00;0.00;0.62;1.50;0.70;;;30.60;23.40;;;;;;2255723;61;20912;-65
2023/07/20 03:30:00;0.00;0.00;0.62;0.00;0.00;0.62;1.40;0.80;;;30.60;23.40;;;;;;2258256;61;20358;-64
2023/07/20 03:32:45;0.00;0.00;0.62;0.00;0.00;0.62;1.20;0.70;;;30.60;23.40;;;;;;2255510;61;20371;-64
2023/07/20 03:35:31;0.00;0.00;0.62;0.00;0.00;0.62;1.30;0.70;;;30.60;23.40;;;;;;2258242;61;20346;-64
2023/07/20 03:38:15;0.00;0.00;0.62;0.00;0.00;0.62;1.57;0.90;;;30.60;23.40;;;;;;2257966;61;20385;-64
2023/07/20 03:41:00;0.00;0.00;0.62;0.00;0.00;0.62;1.70;0.77;;;30.60;23.40;;;;;;2254852;61;20362;-64
2023/07/20 03:43:47;0.00;0.00;0.62;0.00;0.00;0.62;1.40;0.90;;;30.60;23.40;;;;;;2261370;61;20346;-64
2023/07/20 03:46:33;0.00;0.00;0.62;0.00;0.00;0.62;1.50;0.80;;;30.60;23.40;;;;;;2258167;61;20497;-64
2023/07/20 03:49:19;0.00;0.00;0.62;0.00;0.00;0.62;1.73;0.90;;;30.60;23.40;;;;;;2258101;61;20442;-64
2023/07/20 03:52:05;0.00;0.00;0.62;0.00;0.00;0.62;1.20;0.70;;;30.60;24.00;;;;;;2258282;61;20351;-64
2023/07/20 03:54:51;0.00;0.00;0.62;0.00;0.00;0.62;1.60;0.80;;;30.60;23.40;;;;;;2258604;61;20383;-64
2023/07/20 03:57:36;0.00;0.00;0.62;0.00;0.00;0.62;1.60;0.90;;;30.50;23.40;;;;;;2258050;61;20385;-64
2023/07/20 04:00:22;0.00;0.00;0.62;0.00;0.00;0.62;1.60;0.77;;;30.50;23.40;;;;;;2260697;61;20370;-64
2023/07/20 04:03:08;0.00;0.00;0.62;0.00;0.00;0.62;1.50;0.90;;;30.50;23.40;;;;;;2261419;61;20353;-64
2023/07/20 04:05:54;0.00;0.00;0.62;0.00;0.00;0.62;1.30;0.90;;;30.50;23.40;;;;;;2257905;61;20785;-64
2023/07/20 04:08:39;0.00;0.00;0.62;0.00;0.00;0.62;1.40;0.90;;;30.50;23.40;;;;;;2260938;61;20992;-64
2023/07/20 04:11:24;0.00;0.00;0.62;0.00;0.00;0.62;1.50;0.90;;;30.50;23.40;;;;;;2260875;61;20361;-63
2023/07/20 04:14:08;0.00;0.00;0.62;0.00;0.00;0.62;1.40;0.90;;;30.50;23.40;;;;;;2257875;61;20366;-64
2023/07/20 04:16:55;0.00;0.00;0.62;0.00;0.00;0.62;1.40;0.87;;;30.50;23.40;;;;;;2261171;61;20452;-64
2023/07/20 04:19:40;0.00;0.00;0.62;0.00;0.00;0.62;1.40;0.77;;;30.50;23.40;;;;;;2257439;61;20381;-64
2023/07/20 04:22:25;0.00;0.00;0.62;0.00;0.00;0.62;1.77;0.90;;;30.50;23.40;;;;;;2257585;61;20365;-64
2023/07/20 04:25:10;0.00;0.00;0.62;0.00;0.00;0.62;1.70;1.10;;;30.50;23.40;;;;;;2257937;61;20435;-64
2023/07/20 04:27:55;0.00;0.00;0.62;0.00;0.00;0.62;1.97;1.30;;;30.50;23.40;;;;;;2257797;61;20385;-64
2023/07/20 04:30:40;0.00;0.00;0.62;0.00;0.00;0.62;3.10;1.10;;;30.50;23.40;;;;;;2257940;61;20381;-64
2023/07/20 04:33:28;0.00;0.00;0.62;0.00;0.00;0.62;1.97;1.37;;;30.50;23.90;;;;;;2257543;61;20421;-64
2023/07/20 04:36:16;0.00;0.00;0.62;0.00;0.00;0.62;1.80;1.40;;;30.50;23.40;;;;;;2257809;61;20366;-64
2023/07/20 04:39:00;0.00;0.00;0.62;0.00;0.00;0.62;2.53;1.50;;;30.50;23.40;;;;;;2258147;61;20432;-64
2023/07/20 04:41:52;0.00;0.00;0.62;0.00;0.00;0.62;2.50;1.70;;;30.50;23.40;;;;;;2254950;61;20370;-64
2023/07/20 04:44:37;0.00;0.00;0.62;0.00;0.00;0.62;2.37;1.50;;;30.50;23.40;;;;;;2258105;61;20789;-64
2023/07/20 04:47:22;0.00;0.00;0.62;0.00;0.00;0.62;2.70;1.90;;;30.50;23.90;;;;;;2258026;61;20382;-64
2023/07/20 04:50:10;0.00;0.00;0.62;0.00;0.00;0.62;2.47;1.77;;;30.50;23.40;;;;;;2257670;61;20828;-64
2023/07/20 04:52:55;0.00;0.00;0.62;0.00;0.00;0.62;2.40;1.87;;;30.50;23.40;;;;;;2258186;61;20508;-64
2023/07/20 04:55:50;0.00;0.00;0.62;0.00;0.00;0.62;2.40;2.00;;;30.50;23.40;;;;;;2257879;61;20434;-64
2023/07/20 04:58:35;0.00;0.00;0.62;0.00;0.00;0.62;2.97;2.40;;;30.40;23.40;;;;;;2257589;61;20481;-64
2023/07/20 05:01:20;0.00;0.00;0.62;0.00;0.00;0.62;3.60;2.07;;;30.40;23.40;;;;;;2260754;61;20408;-64
2023/07/20 05:04:05;0.00;0.00;0.62;0.00;0.00;0.62;3.23;2.17;;;30.40;23.40;;;;;;2257967;61;20347;-64
2023/07/20 05:06:51;0.00;0.00;0.62;0.00;0.00;0.62;3.10;2.37;;;30.40;23.40;;;;;;2257873;61;20441;-64
2023/07/20 05:09:36;0.00;0.00;0.62;0.00;0.00;0.62;3.77;3.00;;;30.40;23.40;;;;;;2254603;61;20361;-64
2023/07/20 05:12:21;0.00;0.00;0.62;0.00;0.00;0.62;3.10;2.57;;;30.40;24.00;;;;;;2256373;61;20369;-64
2023/07/20 05:15:07;0.00;0.00;0.62;0.00;0.00;0.62;3.57;2.77;;;30.40;23.40;;;;;;2256226;61;20368;-64
2023/07/20 05:17:54;0.00;0.00;0.62;0.00;0.00;0.62;4.77;3.30;;;30.40;23.40;;;;;;2257784;61;20386;-64
2023/07/20 05:20:38;0.00;0.00;0.62;0.00;0.00;0.62;4.00;3.10;;;30.40;23.50;;;;;;2257967;61;20385;-64
2023/07/20 05:23:25;0.00;0.00;0.62;0.00;0.00;0.62;4.07;3.10;;;30.40;23.50;;;;;;2258252;61;20361;-64
2023/07/20 05:26:10;0.00;0.00;0.62;0.00;0.00;0.62;5.07;3.93;;;30.40;23.50;;;;;;2258011;61;20354;-64
2023/07/20 05:28:55;0.00;0.00;0.62;0.00;0.00;0.62;3.27;2.97;;;30.40;23.50;;;;;;2260598;61;20369;-64
2023/07/20 05:31:39;0.00;0.00;0.62;0.00;0.00;0.62;3.20;2.77;;;30.40;23.50;;;;;;2261081;61;20393;-64
2023/07/20 05:34:24;0.00;0.00;0.62;0.00;0.00;0.62;3.20;2.80;;;30.40;23.50;;;;;;2260673;61;20362;-64
2023/07/20 05:37:09;0.00;0.00;0.62;0.00;0.00;0.62;4.00;3.13;;;30.40;23.50;;;;;;2260651;61;20910;-64
2023/07/20 05:39:55;0.00;0.00;0.62;0.00;0.00;0.62;4.30;3.33;;;30.40;23.50;;;;;;2260933;61;20438;-64
2023/07/20 05:42:39;0.00;0.00;0.62;0.00;0.00;0.62;3.67;2.80;;;30.40;23.60;;;;;;2261265;61;20370;-64
2023/07/20 05:45:24;0.00;0.00;0.62;0.00;0.00;0.62;3.30;2.73;;;30.40;23.60;;;;;;2260984;61;20377;-64
2023/07/20 05:48:13;0.00;0.00;0.62;0.00;0.00;0.62;3.70;3.00;;;30.40;23.60;;;;;;2260802;61;20393;-64
2023/07/20 05:50:57;0.00;0.00;0.62;0.00;0.00;0.62;3.60;2.70;;;30.40;23.60;;;;;;2257972;61;20361;-64
2023/07/20 05:53:42;0.00;0.00;0.62;0.00;0.00;0.62;3.77;3.37;;;30.40;23.60;;;;;;2257747;61;20938;-64
2023/07/20 05:56:28;0.00;0.00;0.62;0.00;0.00;0.62;2.83;2.53;;;30.40;23.60;;;;;;2257946;61;20346;-64
2023/07/20 05:59:13;0.00;0.00;0.62;0.00;0.00;0.62;3.20;2.60;;;30.40;23.70;;;;;;2257916;61;21149;-64
2023/07/20 06:01:58;0.00;0.00;0.62;0.00;0.00;0.62;3.57;3.00;;;30.40;23.70;;;;;;2257823;61;20374;-64
2023/07/20 06:04:42;0.00;0.00;0.62;0.00;0.00;0.62;3.27;2.80;;;30.30;23.60;;;;;;2255164;61;20409;-64
2023/07/20 06:07:27;0.00;0.00;0.62;0.00;0.00;0.62;2.77;2.47;;;30.30;23.60;;;;;;2261687;61;20405;-64
2023/07/20 06:10:12;0.00;0.00;0.62;0.00;0.00;0.62;3.30;2.33;;;30.40;23.70;;;;;;2261286;61;20374;-64
2023/07/20 06:12:58;0.00;0.00;0.62;0.00;0.00;0.62;3.60;2.40;;;30.40;23.70;;;;;;2261345;61;20460;-64
2023/07/20 06:15:43;0.00;0.00;0.62;0.00;0.00;0.62;2.80;2.10;;;30.30;23.70;;;;;;2261355;61;20362;-64
2023/07/20 06:18:28;0.00;0.00;0.62;0.00;0.00;0.62;2.60;2.10;;;30.30;23.70;;;;;;2261302;61;20865;-64
2023/07/20 06:21:12;0.00;0.00;0.62;0.00;0.00;0.62;3.00;2.23;;;30.30;23.70;;;;;;2258130;61;20440;-64
2023/07/20 06:23:58;0.00;0.00;0.62;0.00;0.00;0.62;3.90;2.17;;;30.30;23.70;;;;;;2261229;61;20346;-64
2023/07/20 06:26:43;0.00;0.00;0.62;0.00;0.00;0.62;3.00;2.00;;;30.30;23.70;;;;;;2260912;61;20405;-64
2023/07/20 06:29:29;0.00;0.00;0.62;0.00;0.00;0.62;3.00;2.27;;;30.30;23.70;;;;;;2261305;61;20642;-64
2023/07/20 06:32:13;0.00;0.00;0.62;0.00;0.00;0.62;2.60;1.67;;;30.30;23.70;;;;;;2261437;61;20350;-64
2023/07/20 06:34:58;0.00;0.00;0.62;0.00;0.00;0.62;2.40;1.47;;;30.30;23.70;;;;;;2261553;61;20349;-64
2023/07/20 06:37:43;0.00;0.00;0.62;0.00;0.00;0.62;2.30;1.80;;;30.30;23.70;;;;;;2258476;61;20433;-65
2023/07/20 06:40:28;0.00;0.00;0.62;0.00;0.00;0.62;2.60;1.90;;;30.30;23.70;;;;;;2261140;61;20420;-64
2023/07/20 06:43:12;0.00;0.00;0.62;0.00;0.00;0.62;3.00;2.20;;;30.30;23.70;;;;;;2258303;61;20420;-64
2023/07/20 06:45:58;0.00;0.00;0.62;0.00;0.00;0.62;2.60;2.00;;;30.30;23.70;;;;;;2257968;61;20393;-64
2023/07/20 06:48:43;0.00;0.00;0.62;0.00;0.00;0.62;2.33;1.60;;;30.30;23.80;;;;;;2261258;61;20393;-64
2023/07/20 06:51:27;0.00;0.00;0.62;0.00;0.00;0.62;1.90;1.40;;;30.30;23.80;;;;;;2261201;61;20361;-65
2023/07/20 06:54:12;0.00;0.00;0.62;0.00;0.00;0.62;2.50;2.10;;;30.30;23.80;;;;;;2261435;61;20369;-64
2023/07/20 06:56:56;0.00;0.00;0.62;0.00;0.00;0.62;1.80;1.40;;;30.30;23.80;;;;;;2261201;61;20385;-64
2023/07/20 06:59:41;0.00;0.00;0.62;0.00;0.00;0.62;2.40;1.77;;;30.30;23.80;;;;;;2261281;61;20876;-64
2023/07/20 07:02:27;0.00;0.00;0.62;0.00;0.00;0.62;2.70;1.60;;;30.30;23.80;;;;;;2261236;61;20350;-64
2023/07/20 07:05:14;0.00;0.00;0.62;0.00;0.00;0.62;2.10;1.57;;;30.30;23.80;;;;;;2261238;61;20374;-64
2023/07/20 07:07:59;0.00;0.00;0.62;0.00;0.00;0.62;2.20;1.60;;;30.30;23.80;;;;;;2257797;61;20462;-64
2023/07/20 07:10:44;0.00;0.00;0.62;0.00;0.00;0.62;2.20;1.80;;;30.30;23.80;;;;;;2257999;61;20354;-64
2023/07/20 07:13:28;0.00;0.00;0.62;0.00;0.00;0.62;2.50;1.97;;;30.30;23.90;;;;;;2261273;61;20442;-65
2023/07/20 07:16:18;0.00;0.00;0.62;0.00;0.00;0.62;3.27;1.83;;;30.30;23.80;;;;;;2260688;61;20366;-64
2023/07/20 07:19:05;0.00;0.00;0.62;0.00;0.00;0.62;2.10;1.60;;;30.30;23.90;;;;;;2260645;61;20397;-64
2023/07/20 07:21:50;0.00;0.00;0.62;0.00;0.00;0.62;1.80;1.43;;;30.30;23.90;;;;;;2258163;61;20392;-64
2023/07/20 07:24:35;0.00;0.00;0.62;0.00;0.00;0.62;2.40;1.80;;;30.30;23.90;;;;;;2260789;61;20417;-64
2023/07/20 07:27:20;0.00;0.00;0.62;0.00;0.00;0.62;3.80;1.40;;;30.30;23.80;;;;;;2260767;61;20445;-64
2023/07/20 07:30:07;0.00;0.00;0.62;0.00;0.00;0.62;1.90;1.60;;;30.30;23.80;;;;;;2260413;61;20905;-65
2023/07/20 07:32:52;0.00;0.00;0.62;0.00;0.00;0.62;2.50;1.23;;;30.30;23.80;;;;;;2261026;61;20362;-65
2023/07/20 07:35:39;0.00;0.00;0.62;0.00;0.00;0.62;3.00;1.60;;;30.30;23.80;;;;;;2260658;61;20416;-65
2023/07/20 07:38:24;0.00;0.00;0.62;0.00;0.00;0.62;2.10;1.70;;;30.30;23.90;;;;;;2260768;61;20385;-64
2023/07/20 07:41:09;0.00;0.00;0.62;0.00;0.00;0.62;1.87;1.30;;;30.30;23.90;;;;;;2260333;61;20425;-64
2023/07/20 07:43:53;0.00;0.00;0.62;0.00;0.00;0.62;2.53;1.63;;;30.30;23.90;;;;;;2260590;61;20350;-65
2023/07/20 07:46:38;0.00;0.00;0.62;0.00;0.00;0.62;2.10;1.60;;;30.30;23.90;;;;;;2260841;61;20908;-65
2023/07/20 07:49:22;0.00;0.00;0.62;0.00;0.00;0.62;1.80;1.20;;;30.30;24.40;;;;;;2257211;61;20450;-65
2023/07/20 07:52:09;0.00;0.00;0.62;0.00;0.00;0.62;2.07;1.67;;;30.30;23.90;;;;;;2258187;61;20397;-65
2023/07/20 07:54:54;0.00;0.00;0.62;0.00;0.00;0.62;2.03;1.30;;;30.30;23.80;;;;;;2260982;61;20443;-64
2023/07/20 07:57:38;0.00;0.00;0.62;0.00;0.00;0.62;2.17;1.47;;;30.30;23.80;;;;;;2260988;61;20432;-64
2023/07/20 08:00:23;0.00;0.00;0.62;0.00;0.00;0.62;2.33;1.40;;;30.30;23.80;;;;;;2260665;61;20456;-64
2023/07/20 08:03:08;0.00;0.00;0.62;0.00;0.00;0.62;1.70;1.20;;;30.30;23.80;;;;;;2260628;61;20404;-64
2023/07/20 08:05:59;0.00;0.00;0.62;0.00;0.00;0.62;2.93;1.43;;;30.30;23.90;;;;;;2260750;61;20419;-65
2023/07/20 08:08:46;0.00;0.00;0.62;0.00;0.00;0.62;1.77;1.20;;;30.30;23.80;;;;;;2260165;61;20405;-64
2023/07/20 08:11:33;0.00;0.00;0.62;0.00;0.00;0.62;1.93;1.30;;;30.30;23.80;;;;;;2257947;61;20366;-64
2023/07/20 08:14:19;0.00;0.00;0.62;0.00;0.00;0.62;1.73;1.10;;;30.30;23.80;;;;;;2260833;61;20401;-64
2023/07/20 08:17:04;0.00;0.00;0.62;0.00;0.00;0.62;1.80;1.10;;;30.30;23.80;;;;;;2260857;61;20474;-65
2023/07/20 08:19:49;0.00;0.00;0.62;0.00;0.00;0.62;2.27;1.20;;;30.30;23.80;;;;;;2260654;61;20930;-65
2023/07/20 08:22:34;0.00;0.00;0.62;0.00;0.00;0.62;1.50;1.10;;;30.30;24.30;;;;;;2260992;61;20354;-65
2023/07/20 08:25:20;0.00;0.00;0.62;0.00;0.00;0.62;1.53;1.10;;;30.30;23.80;;;;;;2260919;61;20837;-65
2023/07/20 08:28:05;0.00;0.00;0.62;0.00;0.00;0.62;2.87;1.40;;;30.30;23.80;;;;;;2261067;61;20405;-65
2023/07/20 08:30:50;0.00;0.00;0.62;0.00;0.00;0.62;1.37;0.90;;;30.30;23.80;;;;;;2257842;61;20357;-65
2023/07/20 08:33:35;0.00;0.00;0.62;0.00;0.00;0.62;1.90;1.30;;;30.30;23.80;;;;;;2257178;61;20424;-65
2023/07/20 08:36:19;0.00;0.00;0.62;0.00;0.00;0.62;2.77;1.30;;;30.30;23.80;;;;;;2260823;61;20346;-65
2023/07/20 08:39:04;0.00;0.00;0.62;0.00;0.00;0.62;1.83;1.20;;;30.30;23.80;;;;;;2261005;61;20366;-64
2023/07/20 08:41:53;0.00;0.00;0.62;0.00;0.00;0.62;2.00;1.23;;;30.30;23.80;;;;;;2260867;61;20345;-65
2023/07/20 08:44:41;0.00;0.00;0.62;0.00;0.00;0.62;1.87;1.23;;;30.30;23.80;;;;;;2260772;61;20424;-65
2023/07/20 08:47:26;0.00;0.00;0.62;0.00;0.00;0.62;1.60;1.10;;;30.30;23.70;;;;;;2260919;61;20393;-65
2023/07/20 08:50:12;0.00;0.00;0.62;0.00;0.00;0.62;1.70;1.20;;;30.30;23.70;;;;;;2257302;61;20386;-65
2023/07/20 08:52:59;0.00;0.00;0.62;0.00;0.00;0.62;2.20;1.20;;;30.30;23.70;;;;;;2260966;61;20385;-66
2023/07/20 08:55:47;0.00;0.00;0.62;0.00;0.00;0.62;1.97;1.20;;;30.30;23.70;;;;;;2261047;61;20393;-66
2023/07/20 08:58:35;0.00;0.00;0.62;0.00;0.00;0.62;1.70;1.00;;;30.30;23.70;;;;;;2260776;61;21515;-65
2023/07/20 09:01:20;0.00;0.00;0.62;0.00;0.00;0.62;1.60;1.20;;;30.30;23.70;;;;;;2260879;61;20433;-66
2023/07/20 09:04:05;0.00;0.00;0.62;0.00;0.00;0.62;1.80;1.20;;;30.30;23.70;;;;;;2260926;61;20905;-65
2023/07/20 09:06:50;0.00;0.00;0.62;0.00;0.00;0.62;1.37;1.00;;;30.30;23.70;;;;;;2260888;61;20405;-65
2023/07/20 09:09:41;0.00;0.00;0.62;0.00;0.00;0.62;1.50;1.03;;;30.30;23.70;;;;;;2261109;61;20369;-65
2023/07/20 09:12:26;0.00;0.00;0.62;0.00;0.00;0.62;1.40;1.00;;;30.30;23.70;;;;;;2261027;61;20361;-65
2023/07/20 09:15:13;0.00;0.00;0.62;0.00;0.00;0.62;1.83;1.07;;;30.30;23.60;;;;;;2257787;61;20362;-65
2023/07/20 09:20:52;0.00;0.00;0.62;0.00;0.00;0.62;1.73;1.10;;;30.30;23.60;;;;;;2266385;61;20428;-65
2023/07/20 09:23:41;0.00;0.00;0.62;0.00;0.00;0.62;2.00;1.33;;;30.30;23.60;;;;;;2264570;61;20364;-64
2023/07/20 09:26:25;0.00;0.00;0.62;0.00;0.00;0.62;1.57;1.10;;;30.30;23.60;;;;;;2263864;61;20341;-65
2023/07/20 09:29:11;0.00;0.00;0.62;0.00;0.00;0.62;1.90;1.30;;;30.30;23.60;;;;;;2260841;61;20413;-65
2023/07/20 09:32:03;0.00;0.00;0.62;0.00;0.00;0.62;1.60;1.10;;;30.30;23.60;;;;;;2260658;61;20424;-65
2023/07/20 09:34:51;0.00;0.00;0.62;0.00;0.00;0.62;2.07;1.37;;;30.30;23.60;;;;;;2260379;61;20701;-65
2023/07/20 09:37:38;0.00;0.00;0.62;0.00;0.00;0.62;1.80;1.30;;;30.30;23.60;;;;;;2306245;40;20459;-63
2023/07/20 09:40:25;0.00;0.00;0.62;0.00;0.00;0.62;2.00;1.50;;;30.30;23.60;;;;;;2257198;61;20392;-64
2023/07/20 09:43:10;0.00;0.00;0.62;0.00;0.00;0.62;1.83;1.40;;;30.30;23.60;;;;;;2256714;61;20366;-62
2023/07/20 09:45:58;0.00;0.00;0.62;0.00;0.00;0.62;2.10;1.80;;;30.30;23.60;;;;;;2253558;61;20461;-63
2023/07/20 09:48:53;0.00;0.00;0.62;0.00;0.00;0.62;2.23;1.80;;;30.30;24.10;;;;;;2256199;61;20436;-64
2023/07/20 09:51:39;0.00;0.00;0.62;0.00;0.00;0.62;2.20;1.63;;;30.30;23.50;;;;;;2256552;61;20886;-63
2023/07/20 09:54:26;0.00;0.00;0.62;0.00;0.00;0.62;2.00;1.60;;;30.30;23.50;;;;;;2256611;61;20537;-63
2023/07/20 09:57:13;0.00;0.00;0.62;0.00;0.00;0.62;2.93;1.90;;;30.30;23.50;;;;;;2256879;61;20390;-63
2023/07/20 09:59:59;0.00;0.00;0.62;0.00;0.00;0.62;1.87;1.63;;;30.40;23.60;;;;;;2256312;61;20424;-64
2023/07/20 10:02:46;0.00;0.00;0.62;0.00;0.00;0.62;2.40;1.90;;;30.30;23.50;;;;;;2253399;61;20370;-63
2023/07/20 10:05:34;0.00;0.00;0.62;0.00;0.00;0.62;2.60;2.30;;;30.40;23.60;;;;;;2256898;61;20389;-63
2023/07/20 10:08:23;0.00;0.00;0.62;0.00;0.00;0.62;2.03;1.83;;;30.30;23.50;;;;;;2256289;61;20435;-63
2023/07/20 10:11:12;0.00;0.00;0.62;0.00;0.00;0.62;2.57;2.13;;;30.40;23.50;;;;;;2256734;61;20362;-63
2023/07/20 10:13:59;0.00;0.00;0.62;0.00;0.00;0.62;2.67;1.93;;;30.40;23.50;;;;;;2253383;61;20509;-63
2023/07/20 10:16:52;0.00;0.00;0.62;0.00;0.00;0.62;2.30;1.90;;;30.40;23.60;;;;;;2256295;61;20409;-63
2023/07/20 10:19:44;0.00;0.00;0.62;0.00;0.00;0.62;2.73;2.40;;;30.40;23.60;;;;;;2253029;61;20793;-63
2023/07/20 10:22:36;0.00;0.00;0.62;0.00;0.00;0.62;2.40;2.00;;;30.40;23.60;;;;;;2256301;61;20362;-61
2023/07/20 10:25:22;0.00;0.00;0.62;0.00;0.00;0.62;2.13;1.90;;;30.40;23.60;;;;;;2256506;61;20818;-64
2023/07/20 10:28:07;0.00;0.00;0.62;0.00;0.00;0.62;2.67;1.87;;;30.40;23.60;;;;;;2256575;61;20778;-64
2023/07/20 10:30:53;0.00;0.00;0.62;0.00;0.00;0.62;2.50;2.20;;;30.40;23.50;;;;;;2256398;61;20909;-63
2023/07/20 10:33:38;0.00;0.00;0.62;0.00;0.00;0.62;2.60;2.10;;;30.40;23.50;;;;;;2256641;61;20361;-61
2023/07/20 10:36:27;0.00;0.00;0.62;0.00;0.00;0.62;2.00;1.50;;;30.40;23.50;;;;;;2253339;61;20358;-63
2023/07/20 10:39:24;0.00;0.00;0.62;0.00;0.00;0.62;2.10;1.70;;;30.40;23.50;;;;;;2255506;61;20420;-63
2023/07/20 10:42:10;0.00;0.00;0.62;0.00;0.00;0.62;2.60;2.27;;;30.40;23.60;;;;;;2256661;61;20378;-63
2023/07/20 10:44:55;0.00;0.00;0.62;0.00;0.00;0.62;2.97;1.87;;;30.40;23.50;;;;;;2256311;61;20863;-64
2023/07/20 10:47:46;0.00;0.00;0.62;0.00;0.00;0.62;2.40;1.97;;;30.40;23.50;;;;;;2256443;61;20521;-63
2023/07/20 10:50:32;0.00;0.00;0.62;0.00;0.00;0.62;2.43;2.23;;;30.40;23.50;;;;;;2255416;61;20413;-64
2023/07/20 10:53:19;0.00;0.00;0.62;0.00;0.00;0.62;2.03;1.80;;;30.40;23.50;;;;;;2256596;61;20374;-63
2023/07/20 10:56:12;0.00;0.00;0.62;0.00;0.00;0.62;2.50;2.30;;;30.40;23.50;;;;;;2256467;61;20944;-62
2023/07/20 10:58:59;0.00;0.00;0.62;0.00;0.00;0.62;2.87;1.87;;;30.40;23.50;;;;;;2256133;61;20370;-63